Time;durP1;ratioP1;P1;durP2;ratioP2;P2;SDS_P1;SDS_P2;PMS_P1;PMS_P2;Temp;Humidity;BMP_temperature;BMP_pressure;BME280_temperature;BME280_humidity;BME280_pressure;Samples;Min_cycle;Max_cycle;Signal;HPM_P1;HPM_P2
2023/11/27 00:00:29;;;;;;;28.95;14.73;;;;;;;;;;5182821;28;20038;-57
2023/11/27 00:03:00;;;;;;;27.80;13.40;;;;;;;;;;5199609;28;20041;-58
2023/11/27 00:05:31;;;;;;;30.15;12.60;;;;;;;;;;5199440;28;20041;-59
2023/11/27 00:08:02;;;;;;;23.48;12.45;;;;;;;;;;5182980;28;20030;-58
2023/11/27 00:10:33;;;;;;;28.00;12.73;;;;;;;;;;5199812;28;20132;-59
2023/11/27 00:13:05;;;;;;;23.10;12.45;;;;;;;;;;5199011;28;20041;-58
2023/11/27 00:15:36;;;;;;;28.38;13.90;;;;;;;;;;5182233;28;20143;-59
2023/11/27 00:18:07;;;;;;;23.13;12.40;;;;;;;;;;5182694;28;20081;-58
2023/11/27 00:20:38;;;;;;;25.48;12.88;;;;;;;;;;5198973;28;20392;-58
2023/11/27 00:23:13;;;;;;;28.95;14.23;;;;;;;;;;5182340;28;20045;-57
2023/11/27 00:25:44;;;;;;;26.70;13.02;;;;;;;;;;5198025;28;20050;-57
2023/11/27 00:28:15;;;;;;;21.58;12.27;;;;;;;;;;5164835;28;20096;-57
2023/11/27 00:30:46;;;;;;;27.15;13.73;;;;;;;;;;5182109;28;20125;-57
2023/11/27 00:33:17;;;;;;;27.60;13.82;;;;;;;;;;5182233;28;20637;-59
2023/11/27 00:35:48;;;;;;;28.40;13.88;;;;;;;;;;5166063;28;20191;-58
2023/11/27 00:38:19;;;;;;;26.23;13.75;;;;;;;;;;5181492;28;20363;-56
2023/11/27 00:40:51;;;;;;;26.50;13.38;;;;;;;;;;5182297;28;20042;-57
2023/11/27 00:43:22;;;;;;;31.08;15.13;;;;;;;;;;5198029;28;20042;-57
2023/11/27 00:45:54;;;;;;;31.00;15.45;;;;;;;;;;5198137;28;20338;-57
2023/11/27 00:48:25;;;;;;;26.25;15.75;;;;;;;;;;5181984;28;20037;-58
2023/11/27 00:50:56;;;;;;;26.98;13.35;;;;;;;;;;5199057;28;20064;-57
2023/11/27 00:53:27;;;;;;;29.83;13.57;;;;;;;;;;5182343;28;20472;-56
2023/11/27 00:55:58;;;;;;;28.77;13.80;;;;;;;;;;5198602;28;20050;-56
2023/11/27 00:58:30;;;;;;;29.92;14.07;;;;;;;;;;5180915;28;20460;-56
2023/11/27 01:01:01;;;;;;;23.45;13.55;;;;;;;;;;5182097;28;20049;-58
2023/11/27 01:03:32;;;;;;;22.02;11.85;;;;;;;;;;5182357;28;20120;-58
2023/11/27 01:06:04;;;;;;;24.40;11.80;;;;;;;;;;5182082;28;20042;-58
2023/11/27 01:08:35;;;;;;;26.17;11.60;;;;;;;;;;5198335;28;20516;-57
2023/11/27 01:11:06;;;;;;;21.50;10.77;;;;;;;;;;5181417;28;20034;-56
2023/11/27 01:13:38;;;;;;;22.43;11.10;;;;;;;;;;5198343;28;20137;-57
2023/11/27 01:16:09;;;;;;;20.13;9.98;;;;;;;;;;5182244;28;20049;-57
2023/11/27 01:18:40;;;;;;;19.23;9.00;;;;;;;;;;5197967;28;20176;-56
2023/11/27 01:21:11;;;;;;;17.40;9.20;;;;;;;;;;5181789;28;20053;-57
2023/11/27 01:23:43;;;;;;;23.85;9.90;;;;;;;;;;5181433;28;20145;-57
2023/11/27 01:26:14;;;;;;;16.75;9.25;;;;;;;;;;5198021;28;20050;-56
2023/11/27 01:28:45;;;;;;;20.15;9.55;;;;;;;;;;5180136;28;20038;-56
2023/11/27 01:31:17;;;;;;;21.88;9.13;;;;;;;;;;5181917;28;20493;-56
2023/11/27 01:33:49;;;;;;;17.20;9.48;;;;;;;;;;5181945;28;20536;-56
2023/11/27 01:36:20;;;;;;;22.20;11.32;;;;;;;;;;5181541;28;20048;-55
2023/11/27 01:38:51;;;;;;;24.00;11.10;;;;;;;;;;5197981;28;20049;-59
2023/11/27 01:41:22;;;;;;;21.60;11.70;;;;;;;;;;5197619;28;20038;-59
2023/11/27 01:43:53;;;;;;;19.83;10.88;;;;;;;;;;5198158;28;20398;-60
2023/11/27 01:46:27;;;;;;;19.00;10.27;;;;;;;;;;5181520;28;20094;-57
2023/11/27 01:48:58;;;;;;;19.70;10.57;;;;;;;;;;5181434;28;20373;-59
2023/11/27 01:51:30;;;;;;;24.08;10.40;;;;;;;;;;5197708;28;20041;-59
2023/11/27 01:54:02;;;;;;;26.53;10.70;;;;;;;;;;5181375;28;20068;-58
2023/11/27 01:56:34;;;;;;;21.63;10.45;;;;;;;;;;5198011;28;20145;-59
2023/11/27 01:59:05;;;;;;;21.10;10.23;;;;;;;;;;5196962;28;20057;-58
2023/11/27 02:01:36;;;;;;;20.73;9.10;;;;;;;;;;5181409;28;20042;-57
2023/11/27 02:04:08;;;;;;;16.17;8.07;;;;;;;;;;5198190;28;20386;-55
2023/11/27 02:06:39;;;;;;;;;;;;;;;;;;5181848;28;20501;-56
2023/11/27 02:09:13;;;;;;;16.27;7.22;;;;;;;;;;5181511;28;19924;-55
2023/11/27 02:11:49;;;;;;;13.98;7.03;;;;;;;;;;5180799;28;20073;-55
2023/11/27 02:14:20;;;;;;;17.23;8.23;;;;;;;;;;5181210;28;20091;-55
2023/11/27 02:16:51;;;;;;;18.75;8.55;;;;;;;;;;5181349;28;20050;-56
2023/11/27 02:19:22;;;;;;;16.38;7.18;;;;;;;;;;5197274;28;20045;-56
2023/11/27 02:21:54;;;;;;;13.00;7.93;;;;;;;;;;5180753;28;20050;-58
2023/11/27 02:24:25;;;;;;;17.63;7.55;;;;;;;;;;5181011;28;20069;-59
2023/11/27 02:26:56;;;;;;;12.30;7.63;;;;;;;;;;5197318;28;20057;-59
2023/11/27 02:29:27;;;;;;;14.30;7.85;;;;;;;;;;5196805;28;20041;-57
2023/11/27 02:31:58;;;;;;;13.55;7.40;;;;;;;;;;5180639;28;20038;-57
2023/11/27 02:34:29;;;;;;;19.67;8.05;;;;;;;;;;5181280;28;20426;-58
2023/11/27 02:37:00;;;;;;;20.38;7.80;;;;;;;;;;5181212;28;20054;-56
2023/11/27 02:39:32;;;;;;;16.98;6.78;;;;;;;;;;5182926;28;20120;-55
2023/11/27 02:42:03;;;;;;;16.70;7.07;;;;;;;;;;5184865;28;20041;-55
2023/11/27 02:44:34;;;;;;;19.57;7.77;;;;;;;;;;5183782;28;20033;-55
2023/11/27 02:47:06;;;;;;;16.08;6.95;;;;;;;;;;5184564;28;20306;-55
2023/11/27 02:49:38;;;;;;;15.98;6.80;;;;;;;;;;5184857;28;20037;-55
2023/11/27 02:52:09;;;;;;;20.25;6.97;;;;;;;;;;5184695;28;20038;-55
2023/11/27 02:54:40;;;;;;;11.95;6.43;;;;;;;;;;5184362;28;20057;-55
2023/11/27 02:57:11;;;;;;;17.00;6.95;;;;;;;;;;5184331;28;20048;-55
2023/11/27 02:59:42;;;;;;;18.83;7.00;;;;;;;;;;5199726;28;20204;-56
2023/11/27 03:02:13;;;;;;;19.20;6.80;;;;;;;;;;5184646;28;20482;-56
2023/11/27 03:04:45;;;;;;;15.65;7.00;;;;;;;;;;5200400;28;20135;-56
2023/11/27 03:07:16;;;;;;;19.30;6.88;;;;;;;;;;5184006;28;20034;-55
2023/11/27 03:09:48;;;;;;;14.00;6.07;;;;;;;;;;5184114;28;20566;-55
2023/11/27 03:12:19;;;;;;;;;;;;;;;;;;5184754;28;20030;-55
2023/11/27 03:14:50;;;;;;;16.17;7.38;;;;;;;;;;5184232;28;19921;-56
2023/11/27 03:17:21;;;;;;;12.38;6.15;;;;;;;;;;5200853;28;20374;-56
2023/11/27 03:19:52;;;;;;;16.63;6.60;;;;;;;;;;5184029;28;20042;-56
2023/11/27 03:22:24;;;;;;;15.52;6.32;;;;;;;;;;5200176;28;20042;-57
2023/11/27 03:24:55;;;;;;;12.90;6.80;;;;;;;;;;5183473;28;20042;-57
2023/11/27 03:27:26;;;;;;;18.33;7.93;;;;;;;;;;5183454;28;20120;-57
2023/11/27 03:29:57;;;;;;;16.27;5.47;;;;;;;;;;5182894;28;20038;-56
2023/11/27 03:32:29;;;;;;;15.25;6.72;;;;;;;;;;5183833;28;20033;-56
2023/11/27 03:35:00;;;;;;;11.85;5.63;;;;;;;;;;5184027;28;20072;-56
2023/11/27 03:37:31;;;;;;;15.35;5.88;;;;;;;;;;5200173;28;20472;-56
2023/11/27 03:40:03;;;;;;;12.55;5.30;;;;;;;;;;5200141;28;20044;-55
2023/11/27 03:42:34;;;;;;;10.75;5.68;;;;;;;;;;5200127;28;20050;-55
2023/11/27 03:45:05;;;;;;;10.85;5.13;;;;;;;;;;5199892;28;20048;-55
2023/11/27 03:47:36;;;;;;;13.17;5.87;;;;;;;;;;5199967;28;20064;-56
2023/11/27 03:50:08;;;;;;;13.88;6.65;;;;;;;;;;5181276;28;20679;-56
2023/11/27 03:52:39;;;;;;;11.95;5.50;;;;;;;;;;5183010;28;20036;-57
2023/11/27 03:55:10;;;;;;;15.70;6.45;;;;;;;;;;5183588;28;20042;-57
2023/11/27 03:57:41;;;;;;;12.88;6.25;;;;;;;;;;5182753;28;20033;-56
2023/11/27 04:00:12;;;;;;;13.70;6.10;;;;;;;;;;5182361;28;20400;-57
2023/11/27 04:02:44;;;;;;;16.05;7.28;;;;;;;;;;5183280;28;20053;-56
2023/11/27 04:05:17;;;;;;;16.58;6.53;;;;;;;;;;5199119;28;20092;-56
2023/11/27 04:07:48;;;;;;;17.17;7.03;;;;;;;;;;5166685;28;20135;-56
2023/11/27 04:10:20;;;;;;;15.20;6.63;;;;;;;;;;5182794;28;20053;-56
2023/11/27 04:12:51;;;;;;;12.23;6.35;;;;;;;;;;5183219;28;20046;-56
2023/11/27 04:15:23;;;;;;;15.40;7.10;;;;;;;;;;5199324;28;20061;-56
2023/11/27 04:17:55;;;;;;;15.70;7.37;;;;;;;;;;5199043;28;20053;-57
2023/11/27 04:20:26;;;;;;;;;;;;;;;;;;5200163;28;20662;-56
2023/11/27 04:22:57;;;;;;;14.60;6.40;;;;;;;;;;5182459;28;19917;-56
2023/11/27 04:25:29;;;;;;;17.63;7.20;;;;;;;;;;5182317;28;20042;-57
2023/11/27 04:28:00;;;;;;;;;;;;;;;;;;5182827;28;20029;-56
2023/11/27 04:30:32;;;;;;;13.63;5.88;;;;;;;;;;5182197;28;19921;-56
2023/11/27 04:33:03;;;;;;;14.20;6.45;;;;;;;;;;5182875;28;20348;-57
2023/11/27 04:35:34;;;;;;;13.27;6.80;;;;;;;;;;5182440;28;20124;-57
2023/11/27 04:38:05;;;;;;;13.52;7.00;;;;;;;;;;5182780;28;20168;-57
2023/11/27 04:40:37;;;;;;;15.30;6.07;;;;;;;;;;5182758;28;20045;-59
2023/11/27 04:43:10;;;;;;;20.02;6.75;;;;;;;;;;5181359;28;20113;-59
2023/11/27 04:45:41;;;;;;;14.20;6.82;;;;;;;;;;5182158;28;20133;-57
2023/11/27 04:48:12;;;;;;;13.40;6.45;;;;;;;;;;5182260;28;20042;-58
2023/11/27 04:50:43;;;;;;;10.95;6.35;;;;;;;;;;5182509;28;20440;-58
2023/11/27 04:53:15;;;;;;;12.10;6.57;;;;;;;;;;5182242;28;20491;-58
2023/11/27 04:55:46;;;;;;;13.63;6.47;;;;;;;;;;5181954;28;20081;-59
2023/11/27 04:58:18;;;;;;;11.40;6.45;;;;;;;;;;5180681;28;20042;-58
2023/11/27 05:00:49;;;;;;;11.75;6.10;;;;;;;;;;5198145;28;20424;-59
2023/11/27 05:03:20;;;;;;;16.27;6.78;;;;;;;;;;5180282;28;20037;-58
2023/11/27 05:05:53;;;;;;;14.05;6.53;;;;;;;;;;5182102;28;20463;-59
2023/11/27 05:08:25;;;;;;;16.48;6.55;;;;;;;;;;5182075;28;20041;-59
2023/11/27 05:10:56;;;;;;;;;;;;;;;;;;5180693;28;20046;-59
2023/11/27 05:13:27;;;;;;;12.20;6.05;;;;;;;;;;5181940;28;20000;-58
2023/11/27 05:15:58;;;;;;;16.35;7.00;;;;;;;;;;5181323;28;20049;-59
2023/11/27 05:18:29;;;;;;;17.05;6.75;;;;;;;;;;5181691;28;20041;-58
2023/11/27 05:21:00;;;;;;;15.93;6.88;;;;;;;;;;5182215;28;20396;-58
2023/11/27 05:23:32;;;;;;;14.75;7.65;;;;;;;;;;5182305;28;20397;-58
2023/11/27 05:26:03;;;;;;;16.97;7.40;;;;;;;;;;5181755;28;20488;-55
2023/11/27 05:28:34;;;;;;;15.73;8.85;;;;;;;;;;5181496;28;20333;-56
2023/11/27 05:31:06;;;;;;;20.67;10.93;;;;;;;;;;5181864;28;20038;-55
2023/11/27 05:33:37;;;;;;;24.17;10.82;;;;;;;;;;5198195;28;20033;-55
2023/11/27 05:36:12;;;;;;;16.20;6.78;;;;;;;;;;5161952;28;20045;-55
2023/11/27 05:38:43;;;;;;;16.38;7.80;;;;;;;;;;5195678;28;20084;-55
2023/11/27 05:41:15;;;;;;;14.52;7.07;;;;;;;;;;5164107;28;20042;-56
2023/11/27 05:43:47;;;;;;;14.23;6.18;;;;;;;;;;5165275;28;20088;-55
2023/11/27 05:46:18;;;;;;;17.13;7.35;;;;;;;;;;5165073;28;20049;-55
2023/11/27 05:48:49;;;;;;;13.45;7.00;;;;;;;;;;5197996;28;20117;-55
2023/11/27 05:51:20;;;;;;;16.95;7.22;;;;;;;;;;5181582;28;20046;-55
2023/11/27 05:53:52;;;;;;;14.20;6.50;;;;;;;;;;5198355;28;20559;-56
2023/11/27 05:56:27;;;;;;;18.25;7.18;;;;;;;;;;5181632;28;20094;-57
2023/11/27 05:58:59;;;;;;;13.55;6.05;;;;;;;;;;5180300;28;20133;-57
2023/11/27 06:01:30;;;;;;;14.40;6.77;;;;;;;;;;5176232;28;20057;-57
2023/11/27 06:04:02;;;;;;;12.70;5.93;;;;;;;;;;5181703;28;20449;-55
2023/11/27 06:06:33;;;;;;;14.70;6.80;;;;;;;;;;5181384;28;20097;-56
2023/11/27 06:09:04;;;;;;;18.27;6.40;;;;;;;;;;5181525;28;20164;-56
2023/11/27 06:11:35;;;;;;;17.88;7.30;;;;;;;;;;5197964;28;20038;-56
2023/11/27 06:14:07;;;;;;;16.90;6.90;;;;;;;;;;5182866;28;20050;-55
2023/11/27 06:16:38;;;;;;;12.25;7.07;;;;;;;;;;5185967;28;20511;-55
2023/11/27 06:19:10;;;;;;;19.45;6.25;;;;;;;;;;5198453;28;20049;-55
2023/11/27 06:21:41;;;;;;;18.87;7.60;;;;;;;;;;5185589;28;20417;-55
2023/11/27 06:24:12;;;;;;;16.58;7.57;;;;;;;;;;5185263;28;20045;-55
2023/11/27 06:26:43;;;;;;;16.60;6.60;;;;;;;;;;5201851;28;20102;-55
2023/11/27 06:29:15;;;;;;;17.58;8.20;;;;;;;;;;5183960;28;20164;-56
2023/11/27 06:31:46;;;;;;;21.23;7.68;;;;;;;;;;5168598;28;20069;-56
2023/11/27 06:34:17;;;;;;;17.67;7.40;;;;;;;;;;5201645;28;20048;-56
2023/11/27 06:36:48;;;;;;;16.65;7.63;;;;;;;;;;5184709;28;20048;-56
2023/11/27 06:39:20;;;;;;;17.80;7.28;;;;;;;;;;5185169;28;20145;-55
2023/11/27 06:41:51;;;;;;;15.77;7.68;;;;;;;;;;5201525;28;20346;-54
2023/11/27 06:44:22;;;;;;;17.13;7.53;;;;;;;;;;5201421;28;20042;-57
2023/11/27 06:46:54;;;;;;;17.48;7.45;;;;;;;;;;5184443;28;20045;-56
2023/11/27 06:49:26;;;;;;;16.70;7.72;;;;;;;;;;5185014;28;20042;-58
2023/11/27 06:51:57;;;;;;;12.18;6.43;;;;;;;;;;5184659;28;20046;-58
2023/11/27 06:54:28;;;;;;;13.10;6.35;;;;;;;;;;5184654;28;20045;-58
2023/11/27 06:57:00;;;;;;;13.10;6.93;;;;;;;;;;5184738;28;20439;-58
2023/11/27 06:59:31;;;;;;;14.23;6.95;;;;;;;;;;5167108;28;20037;-57
2023/11/27 07:02:02;;;;;;;19.55;8.27;;;;;;;;;;5200741;28;20081;-57
2023/11/27 07:04:33;;;;;;;15.07;7.03;;;;;;;;;;5184575;28;20129;-58
2023/11/27 07:07:05;;;;;;;12.38;6.45;;;;;;;;;;5200906;28;20042;-58
2023/11/27 07:09:36;;;;;;;15.75;6.82;;;;;;;;;;5184948;28;20034;-58
2023/11/27 07:12:07;;;;;;;16.03;7.20;;;;;;;;;;5184211;28;20668;-57
2023/11/27 07:14:39;;;;;;;16.25;6.40;;;;;;;;;;5184311;28;20046;-59
2023/11/27 07:17:10;;;;;;;18.10;7.68;;;;;;;;;;5184387;28;20084;-59
2023/11/27 07:19:42;;;;;;;20.58;7.30;;;;;;;;;;5200430;28;20095;-59
2023/11/27 07:22:13;;;;;;;13.05;7.38;;;;;;;;;;5200898;28;20073;-59
2023/11/27 07:24:44;;;;;;;17.65;8.45;;;;;;;;;;5201295;28;20473;-58
2023/11/27 07:27:16;;;;;;;19.77;8.27;;;;;;;;;;5183444;28;20484;-58
2023/11/27 07:29:47;;;;;;;18.10;8.43;;;;;;;;;;5183389;28;20046;-58
2023/11/27 07:32:18;;;;;;;14.35;8.00;;;;;;;;;;5183857;28;20038;-58
2023/11/27 07:34:49;;;;;;;17.92;8.00;;;;;;;;;;5200721;28;20072;-58
2023/11/27 07:37:20;;;;;;;16.85;8.93;;;;;;;;;;5184087;28;20049;-57
2023/11/27 07:39:51;;;;;;;17.50;7.82;;;;;;;;;;5200128;28;20085;-58
2023/11/27 07:42:23;;;;;;;15.70;8.30;;;;;;;;;;5200386;28;20116;-57
2023/11/27 07:44:54;;;;;;;21.08;8.32;;;;;;;;;;5183515;28;20046;-57
2023/11/27 07:47:25;;;;;;;16.63;8.40;;;;;;;;;;5183766;28;20145;-57
2023/11/27 07:49:57;;;;;;;17.98;9.02;;;;;;;;;;5183885;28;20125;-57
2023/11/27 07:52:28;;;;;;;23.15;11.15;;;;;;;;;;5183636;28;20457;-57
2023/11/27 07:54:59;;;;;;;20.67;10.83;;;;;;;;;;5200070;28;20117;-58
2023/11/27 07:57:32;;;;;;;24.63;10.55;;;;;;;;;;5200098;28;20302;-56
2023/11/27 08:00:07;;;;;;;23.58;10.55;;;;;;;;;;5179067;28;20400;-57
2023/11/27 08:02:42;;;;;;;30.52;13.50;;;;;;;;;;5183279;28;20041;-58
2023/11/27 08:05:17;;;;;;;30.95;14.93;;;;;;;;;;5199577;28;20045;-57
2023/11/27 08:07:49;;;;;;;28.35;14.63;;;;;;;;;;5199309;28;20045;-58
2023/11/27 08:10:21;;;;;;;35.58;16.15;;;;;;;;;;5199362;28;20034;-58
2023/11/27 08:12:52;;;;;;;37.10;16.60;;;;;;;;;;5199100;28;20050;-58
2023/11/27 08:15:24;;;;;;;29.02;14.65;;;;;;;;;;5198951;28;20275;-58
2023/11/27 08:17:56;;;;;;;30.88;15.75;;;;;;;;;;5199062;28;20078;-58
2023/11/27 08:20:32;;;;;;;26.58;13.60;;;;;;;;;;5198337;28;20080;-58
2023/11/27 08:23:03;;;;;;;30.60;14.15;;;;;;;;;;5199266;28;20405;-58
2023/11/27 08:25:34;;;;;;;29.70;16.03;;;;;;;;;;5198002;28;20137;-58
2023/11/27 08:28:06;;;;;;;24.13;13.52;;;;;;;;;;5197280;28;20080;-58
2023/11/27 08:30:37;;;;;;;24.58;13.15;;;;;;;;;;5198674;28;20133;-58
2023/11/27 08:33:08;;;;;;;28.35;13.18;;;;;;;;;;5198612;28;20041;-59
2023/11/27 08:35:40;;;;;;;22.90;13.07;;;;;;;;;;5198920;28;20575;-56
2023/11/27 08:38:11;;;;;;;28.63;14.82;;;;;;;;;;5182074;28;20045;-57
2023/11/27 08:40:43;;;;;;;28.77;15.23;;;;;;;;;;5182559;28;20116;-56
2023/11/27 08:43:14;;;;;;;33.10;16.05;;;;;;;;;;5182257;28;20310;-57
2023/11/27 08:45:45;;;;;;;35.75;17.15;;;;;;;;;;5182568;28;20054;-57
2023/11/27 08:48:16;;;;;;;31.20;16.33;;;;;;;;;;5182765;28;20038;-57
2023/11/27 08:50:47;;;;;;;35.55;17.10;;;;;;;;;;5198908;28;20108;-56
2023/11/27 08:53:19;;;;;;;33.22;16.17;;;;;;;;;;5182534;28;20133;-57
2023/11/27 08:55:50;;;;;;;36.38;16.67;;;;;;;;;;5198728;28;20050;-58
2023/11/27 08:58:21;;;;;;;32.08;16.40;;;;;;;;;;5197872;28;20488;-56
2023/11/27 09:00:52;;;;;;;32.67;16.48;;;;;;;;;;5182418;28;20084;-58
2023/11/27 09:03:24;;;;;;;33.13;16.93;;;;;;;;;;5185542;28;20077;-56
2023/11/27 09:05:55;;;;;;;27.48;14.93;;;;;;;;;;5198415;28;20330;-58
2023/11/27 09:08:26;;;;;;;29.83;15.55;;;;;;;;;;5198699;28;20092;-57
2023/11/27 09:10:57;;;;;;;29.08;14.90;;;;;;;;;;5198661;28;20492;-56
2023/11/27 09:13:29;;;;;;;28.08;15.02;;;;;;;;;;5198491;28;20034;-57
2023/11/27 09:16:01;;;;;;;33.22;15.18;;;;;;;;;;5181999;28;20287;-57
2023/11/27 09:18:32;;;;;;;28.02;15.00;;;;;;;;;;5198534;28;20120;-58
2023/11/27 09:21:04;;;;;;;30.97;14.53;;;;;;;;;;5196648;28;20073;-59
2023/11/27 09:23:35;;;;;;;30.93;15.53;;;;;;;;;;5196618;28;20123;-59
2023/11/27 09:26:06;;;;;;;28.30;15.35;;;;;;;;;;5180119;28;20046;-59
2023/11/27 09:28:37;;;;;;;33.17;14.88;;;;;;;;;;5197211;28;20461;-58
2023/11/27 09:31:09;;;;;;;28.85;15.40;;;;;;;;;;5197893;28;20036;-58
2023/11/27 09:33:40;;;;;;;39.67;16.05;;;;;;;;;;5197939;28;20045;-58
2023/11/27 09:36:14;;;;;;;31.33;15.90;;;;;;;;;;5197808;28;20125;-59
2023/11/27 09:38:47;;;;;;;35.35;17.38;;;;;;;;;;5198141;28;20049;-59
2023/11/27 09:41:18;;;;;;;;;;;;;;;;;;5198508;28;20081;-58
2023/11/27 09:43:49;;;;;;;37.75;17.98;;;;;;;;;;5175934;28;20009;-59
2023/11/27 09:46:24;;;;;;;43.20;19.10;;;;;;;;;;5198079;28;20050;-59
2023/11/27 09:48:57;;;;;;;47.90;20.77;;;;;;;;;;5181451;28;20509;-58
2023/11/27 09:51:31;;;;;;;42.00;18.48;;;;;;;;;;5198396;28;20436;-56
2023/11/27 09:54:03;;;;;;;42.50;17.75;;;;;;;;;;5198186;28;20113;-56
2023/11/27 09:56:35;;;;;;;36.58;17.73;;;;;;;;;;5198084;28;20444;-56
2023/11/27 09:59:08;;;;;;;34.17;14.88;;;;;;;;;;5180550;28;20104;-56
2023/11/27 10:01:41;;;;;;;36.67;15.80;;;;;;;;;;5197682;28;20389;-57
2023/11/27 10:04:12;;;;;;;31.05;14.45;;;;;;;;;;5181484;28;20566;-56
2023/11/27 10:06:43;;;;;;;28.42;13.93;;;;;;;;;;5198213;28;20046;-56
2023/11/27 10:09:14;;;;;;;30.58;15.23;;;;;;;;;;5197831;28;20041;-58
2023/11/27 10:11:50;;;;;;;23.17;13.45;;;;;;;;;;5197912;28;20038;-59
2023/11/27 10:14:26;;;;;;;26.17;14.07;;;;;;;;;;5197832;28;20041;-58
2023/11/27 10:16:59;;;;;;;26.58;12.10;;;;;;;;;;5181834;28;20125;-59
2023/11/27 10:19:30;;;;;;;22.52;12.15;;;;;;;;;;5181316;28;20037;-59
2023/11/27 10:22:01;;;;;;;14.95;8.05;;;;;;;;;;5181038;28;20048;-59
2023/11/27 10:24:33;;;;;;;17.13;9.32;;;;;;;;;;5181286;28;20044;-59
2023/11/27 10:27:08;;;;;;;12.68;6.63;;;;;;;;;;5197598;28;20042;-59
2023/11/27 10:29:39;;;;;;;14.77;6.95;;;;;;;;;;5197042;28;20046;-59
2023/11/27 10:32:11;;;;;;;9.27;6.68;;;;;;;;;;5181258;28;20069;-57
2023/11/27 10:34:42;;;;;;;13.52;8.25;;;;;;;;;;5181067;28;20045;-57
2023/11/27 10:37:14;;;;;;;11.27;7.30;;;;;;;;;;5181257;28;20095;-57
2023/11/27 10:39:48;;;;;;;10.27;6.95;;;;;;;;;;5197469;28;20590;-58
2023/11/27 10:42:22;;;;;;;15.75;7.10;;;;;;;;;;5197544;28;20105;-58
2023/11/27 10:44:55;;;;;;;14.45;7.72;;;;;;;;;;5197605;28;20489;-58
2023/11/27 10:47:26;;;;;;;11.10;7.18;;;;;;;;;;5197362;28;20046;-58
2023/11/27 10:49:59;;;;;;;14.48;8.65;;;;;;;;;;5181003;28;20030;-58
2023/11/27 10:52:30;;;;;;;17.10;8.48;;;;;;;;;;5197433;28;20034;-59
2023/11/27 10:55:03;;;;;;;12.80;8.13;;;;;;;;;;5180960;28;20125;-57
2023/11/27 10:57:36;;;;;;;13.57;8.25;;;;;;;;;;5197393;28;20104;-58
2023/11/27 11:00:08;;;;;;;11.82;7.90;;;;;;;;;;5180026;28;20471;-60
2023/11/27 11:02:39;;;;;;;14.25;7.80;;;;;;;;;;5184431;28;20386;-59
2023/11/27 11:05:14;;;;;;;13.00;8.20;;;;;;;;;;5200847;28;20049;-58
2023/11/27 11:07:47;;;;;;;13.77;8.73;;;;;;;;;;5201142;28;20766;-59
2023/11/27 11:10:18;;;;;;;;;;;;;;;;;;5201256;28;20050;-58
2023/11/27 11:12:49;;;;;;;11.98;8.43;;;;;;;;;;5184329;28;19917;-58
2023/11/27 11:15:27;;;;;;;14.63;9.10;;;;;;;;;;5184543;28;20459;-58
2023/11/27 11:17:59;;;;;;;13.73;8.77;;;;;;;;;;5184830;28;20449;-58
2023/11/27 11:20:30;;;;;;;14.73;8.70;;;;;;;;;;5183416;28;20091;-58
2023/11/27 11:23:11;;;;;;;13.52;8.73;;;;;;;;;;5184157;28;20096;-58
2023/11/27 11:25:42;;;;;;;16.65;9.00;;;;;;;;;;5197274;28;20045;-60
2023/11/27 11:28:16;;;;;;;12.10;8.52;;;;;;;;;;5183513;28;20042;-58
2023/11/27 11:31:07;;;;;;;13.77;8.23;;;;;;;;;;5184018;28;20045;-58
2023/11/27 11:33:38;;;;;;;12.18;8.77;;;;;;;;;;5200315;28;20030;-59
2023/11/27 11:36:16;;;;;;;15.27;8.45;;;;;;;;;;5183974;28;20524;-60
2023/11/27 11:38:48;;;;;;;15.38;8.80;;;;;;;;;;5183400;28;20045;-59
2023/11/27 11:41:20;;;;;;;13.57;9.02;;;;;;;;;;5183519;28;20528;-59
2023/11/27 11:43:52;;;;;;;13.95;8.38;;;;;;;;;;5183859;28;20049;-59
2023/11/27 11:46:25;;;;;;;13.02;8.32;;;;;;;;;;5177985;28;20149;-60
2023/11/27 11:48:57;;;;;;;15.95;8.98;;;;;;;;;;5183613;28;20042;-59
2023/11/27 11:51:31;;;;;;;11.80;8.77;;;;;;;;;;5183547;28;20038;-59
2023/11/27 11:54:04;;;;;;;15.00;9.75;;;;;;;;;;5200120;28;20404;-59
2023/11/27 11:56:35;;;;;;;15.18;9.40;;;;;;;;;;5183435;28;20100;-59
2023/11/27 11:59:13;;;;;;;14.02;9.93;;;;;;;;;;5182630;28;20062;-59
2023/11/27 12:01:45;;;;;;;12.45;9.27;;;;;;;;;;5199602;28;20049;-59
2023/11/27 12:04:18;;;;;;;13.82;9.38;;;;;;;;;;5183667;28;20488;-58
2023/11/27 12:06:49;;;;;;;17.27;10.23;;;;;;;;;;5183096;28;20054;-56
2023/11/27 12:09:20;;;;;;;12.52;8.63;;;;;;;;;;5199860;28;20041;-59
2023/11/27 12:11:57;;;;;;;14.43;8.55;;;;;;;;;;5183318;28;20400;-60
2023/11/27 12:14:32;;;;;;;15.57;9.23;;;;;;;;;;5183317;28;20037;-58
2023/11/27 12:17:07;;;;;;;13.80;9.88;;;;;;;;;;5181680;28;20049;-57
2023/11/27 12:19:38;;;;;;;13.70;9.00;;;;;;;;;;5183538;28;20568;-58
2023/11/27 12:22:10;;;;;;;21.75;9.15;;;;;;;;;;5183686;28;20617;-58
2023/11/27 12:24:46;;;;;;;13.98;9.55;;;;;;;;;;5182925;28;20044;-58
2023/11/27 12:27:17;;;;;;;14.75;8.68;;;;;;;;;;5182747;28;20053;-57
2023/11/27 12:29:49;;;;;;;12.90;8.70;;;;;;;;;;5181537;28;20034;-58
2023/11/27 12:32:24;;;;;;;21.13;9.88;;;;;;;;;;5183278;28;20053;-58
2023/11/27 12:34:55;;;;;;;18.20;9.63;;;;;;;;;;5199960;28;20056;-58
2023/11/27 12:37:28;;;;;;;16.17;10.47;;;;;;;;;;5183374;28;20521;-58
2023/11/27 12:39:59;;;;;;;15.27;10.13;;;;;;;;;;5183358;28;20052;-57
2023/11/27 12:42:31;;;;;;;13.60;10.27;;;;;;;;;;5199688;28;20374;-58
2023/11/27 12:45:06;;;;;;;14.27;9.75;;;;;;;;;;5199275;28;20045;-60
2023/11/27 12:47:37;;;;;;;14.52;9.45;;;;;;;;;;5183055;28;20033;-59
2023/11/27 12:50:22;;;;;;;12.88;9.13;;;;;;;;;;5182137;28;20068;-59
2023/11/27 12:53:03;;;;;;;11.38;8.27;;;;;;;;;;5183772;28;20396;-59
2023/11/27 12:55:38;;;;;;;15.85;8.35;;;;;;;;;;5183751;28;20526;-58
2023/11/27 12:58:12;;;;;;;11.77;8.70;;;;;;;;;;5181744;28;20053;-57
2023/11/27 13:00:44;;;;;;;10.90;8.43;;;;;;;;;;5200170;28;20124;-58
2023/11/27 13:03:20;;;;;;;13.32;8.43;;;;;;;;;;5199540;28;20095;-58
2023/11/27 13:05:52;;;;;;;14.77;8.82;;;;;;;;;;5193176;28;20444;-57
2023/11/27 13:08:23;;;;;;;12.88;8.07;;;;;;;;;;5199460;28;20120;-57
2023/11/27 13:10:57;;;;;;;11.60;7.93;;;;;;;;;;5182614;28;20046;-55
2023/11/27 13:13:29;;;;;;;13.05;8.85;;;;;;;;;;5182986;28;20528;-56
2023/11/27 13:16:04;;;;;;;14.43;9.07;;;;;;;;;;5182103;28;20042;-56
2023/11/27 13:18:36;;;;;;;13.95;9.63;;;;;;;;;;5182116;28;20275;-57
2023/11/27 13:21:08;;;;;;;14.75;9.90;;;;;;;;;;5198810;28;20053;-56
2023/11/27 13:23:39;;;;;;;13.45;8.40;;;;;;;;;;5165306;28;20053;-56
2023/11/27 13:26:28;;;;;;;12.13;8.95;;;;;;;;;;5198778;28;20364;-56
2023/11/27 13:29:00;;;;;;;15.25;10.30;;;;;;;;;;5197610;28;20046;-57
2023/11/27 13:31:36;;;;;;;;;;;;;;;;;;5182398;28;20042;-56
2023/11/27 13:34:32;;;;;;;20.55;9.75;;;;;;;;;;5182057;28;19959;-56
2023/11/27 13:36:59;;;;;;;13.95;9.45;;;;;;;;;;5181780;28;20050;-56
2023/11/27 13:39:36;;;;;;;15.15;10.00;;;;;;;;;;5182208;28;20489;-57
2023/11/27 13:42:14;;;;;;;15.25;10.32;;;;;;;;;;5198682;28;20496;-55
2023/11/27 13:44:45;;;;;;;14.48;9.98;;;;;;;;;;5182571;28;20627;-55
2023/11/27 13:47:20;;;;;;;15.38;10.02;;;;;;;;;;5176570;28;20360;-56
2023/11/27 13:49:57;;;;;;;14.10;9.77;;;;;;;;;;5198873;28;20038;-55
2023/11/27 13:52:29;;;;;;;13.50;9.75;;;;;;;;;;5182012;28;20037;-55
2023/11/27 13:55:00;;;;;;;16.03;9.93;;;;;;;;;;5182515;28;20366;-56
2023/11/27 13:57:32;;;;;;;15.77;10.52;;;;;;;;;;5182047;28;20080;-56
2023/11/27 14:00:18;;;;;;;17.77;10.27;;;;;;;;;;5181661;28;20060;-58
2023/11/27 14:02:50;;;;;;;14.35;9.55;;;;;;;;;;5181674;28;20126;-56
2023/11/27 14:05:21;;;;;;;15.70;9.90;;;;;;;;;;5181891;28;20350;-57
2023/11/27 14:07:52;;;;;;;16.55;10.25;;;;;;;;;;5181536;28;20049;-57
2023/11/27 14:10:54;;;;;;;17.85;10.13;;;;;;;;;;5197986;28;20053;-57
2023/11/27 14:13:24;;;;;;;14.60;10.25;;;;;;;;;;5181834;28;20049;-57
2023/11/27 14:15:57;;;;;;;13.68;9.35;;;;;;;;;;5181198;28;20034;-56
2023/11/27 14:23:54;;;;;;;13.32;9.63;;;;;;;;;;5197616;28;20049;-57
2023/11/27 14:26:34;;;;;;;12.25;8.25;;;;;;;;;;5181338;28;20569;-57
2023/11/27 14:29:08;;;;;;;15.57;8.20;;;;;;;;;;5180128;28;20045;-57
2023/11/27 14:31:39;;;;;;;15.45;8.88;;;;;;;;;;5180912;28;20124;-57
2023/11/27 14:34:13;;;;;;;14.20;8.88;;;;;;;;;;5180832;28;20425;-57
2023/11/27 14:36:45;;;;;;;13.90;9.00;;;;;;;;;;5181808;28;20096;-56
2023/11/27 14:39:16;;;;;;;13.07;9.03;;;;;;;;;;5185220;28;20135;-56
2023/11/27 14:41:51;;;;;;;16.42;9.70;;;;;;;;;;5184616;28;20053;-57
2023/11/27 14:44:23;;;;;;;16.48;9.70;;;;;;;;;;5185395;28;20038;-57
2023/11/27 14:46:54;;;;;;;15.40;10.00;;;;;;;;;;5200404;28;20100;-56
2023/11/27 14:49:41;;;;;;;14.17;9.43;;;;;;;;;;5185143;28;20042;-57
2023/11/27 14:52:13;;;;;;;13.77;8.68;;;;;;;;;;5184495;28;20127;-56
2023/11/27 14:54:46;;;;;;;13.77;9.68;;;;;;;;;;5167982;28;20034;-56
2023/11/27 14:57:18;;;;;;;17.40;9.48;;;;;;;;;;5186333;28;20041;-57
2023/11/27 14:59:50;;;;;;;14.02;10.25;;;;;;;;;;5182671;28;20042;-57
2023/11/27 15:02:21;;;;;;;16.20;9.43;;;;;;;;;;5199662;28;20057;-54